Henleyfield, Mississippi
Current Conditions -  °F | °C
As of 4:50 PM on Saturday 20 Dec 2014 (Local Time) from KHSA Reporting Station
Overcast Overcast  
Wind Chill: 52°   Ceiling: 1100
Heat Index: 52°   Visibility: 7mi
Dew Point: 45°   Wind: 9mph
Humidity: 76%   Direction: 20°NNE
Pressure: 30.13"   Gusts: NA
Location:  30.6922°N, 89.5187°W
Report Text: KHSA 202250Z 02008KT 7SM OVC011 11/07 A3013
Loading
Personal Weather Stations






























Interactive Weather Map New forecast layout! Learn more

10-Day Weather Forecast

Advertisements
Track Severe Weather on mobile